sensor_id;sensor_type;location;lat;lon;timestamp;temperature;humidity
29547;DHT22;40782;47.264;11.330;2022-11-20T00:01:22;4.30;1.00
29547;DHT22;40782;47.264;11.330;2022-11-20T00:03:51;4.30;1.00
29547;DHT22;40782;47.264;11.330;2022-11-20T00:06:20;4.30;1.00
29547;DHT22;40782;47.264;11.330;2022-11-20T00:08:47;4.30;1.00
29547;DHT22;40782;47.264;11.330;2022-11-20T00:11:17;4.20;1.00
29547;DHT22;40782;47.264;11.330;2022-11-20T00:13:45;4.10;1.00
29547;DHT22;40782;47.264;11.330;2022-11-20T00:16:17;4.10;1.00
29547;DHT22;40782;47.264;11.330;2022-11-20T00:18:44;4.00;1.00
29547;DHT22;40782;47.264;11.330;2022-11-20T00:21:13;4.00;1.00
29547;DHT22;40782;47.264;11.330;2022-11-20T00:23:40;4.00;1.00
29547;DHT22;40782;47.264;11.330;2022-11-20T00:26:09;3.90;1.00
29547;DHT22;40782;47.264;11.330;2022-11-20T00:28:37;3.90;1.00
29547;DHT22;40782;47.264;11.330;2022-11-20T00:31:06;4.00;1.00
29547;DHT22;40782;47.264;11.330;2022-11-20T00:33:35;4.00;1.00
29547;DHT22;40782;47.264;11.330;2022-11-20T00:36:04;4.00;1.00
29547;DHT22;40782;47.264;11.330;2022-11-20T00:38:33;4.00;1.00
29547;DHT22;40782;47.264;11.330;2022-11-20T00:41:04;4.00;1.00
29547;DHT22;40782;47.264;11.330;2022-11-20T00:43:31;4.00;1.00
29547;DHT22;40782;47.264;11.330;2022-11-20T00:45:59;4.00;20.50
29547;DHT22;40782;47.264;11.330;2022-11-20T00:48:27;4.10;53.50
29547;DHT22;40782;47.264;11.330;2022-11-20T00:50:55;4.10;76.40
29547;DHT22;40782;47.264;11.330;2022-11-20T00:53:23;4.10;97.30
29547;DHT22;40782;47.264;11.330;2022-11-20T00:55:54;4.10;21.90
29547;DHT22;40782;47.264;11.330;2022-11-20T00:58:22;4.10;1.00
29547;DHT22;40782;47.264;11.330;2022-11-20T01:00:50;4.10;1.00
29547;DHT22;40782;47.264;11.330;2022-11-20T01:03:17;4.10;1.00
29547;DHT22;40782;47.264;11.330;2022-11-20T01:05:45;4.10;1.00
29547;DHT22;40782;47.264;11.330;2022-11-20T01:08:13;4.10;1.00
29547;DHT22;40782;47.264;11.330;2022-11-20T01:10:40;4.10;1.00
29547;DHT22;40782;47.264;11.330;2022-11-20T01:13:07;4.10;1.00
29547;DHT22;40782;47.264;11.330;2022-11-20T01:15:52;4.00;1.00
29547;DHT22;40782;47.264;11.330;2022-11-20T01:18:19;4.00;1.00
29547;DHT22;40782;47.264;11.330;2022-11-20T01:20:46;4.10;1.00
29547;DHT22;40782;47.264;11.330;2022-11-20T01:23:15;4.10;1.00
29547;DHT22;40782;47.264;11.330;2022-11-20T01:25:42;4.10;1.00
29547;DHT22;40782;47.264;11.330;2022-11-20T01:28:09;4.10;1.00
29547;DHT22;40782;47.264;11.330;2022-11-20T01:30:36;4.10;1.00
29547;DHT22;40782;47.264;11.330;2022-11-20T01:33:03;4.10;1.00
29547;DHT22;40782;47.264;11.330;2022-11-20T01:35:30;4.00;1.00
29547;DHT22;40782;47.264;11.330;2022-11-20T01:37:57;4.00;1.00
29547;DHT22;40782;47.264;11.330;2022-11-20T01:40:26;4.00;1.00
29547;DHT22;40782;47.264;11.330;2022-11-20T01:43:01;4.00;8.80
29547;DHT22;40782;47.264;11.330;2022-11-20T01:48:50;4.00;99.90
29547;DHT22;40782;47.264;11.330;2022-11-20T01:51:25;4.00;99.90
29547;DHT22;40782;47.264;11.330;2022-11-20T01:53:58;4.00;99.90
29547;DHT22;40782;47.264;11.330;2022-11-20T01:56:29;4.00;99.90
29547;DHT22;40782;47.264;11.330;2022-11-20T01:58:59;4.00;27.30
29547;DHT22;40782;47.264;11.330;2022-11-20T02:01:28;4.00;1.00
29547;DHT22;40782;47.264;11.330;2022-11-20T02:03:55;4.00;1.00
29547;DHT22;40782;47.264;11.330;2022-11-20T02:06:25;4.00;10.90
29547;DHT22;40782;47.264;11.330;2022-11-20T02:08:53;4.00;1.00
29547;DHT22;40782;47.264;11.330;2022-11-20T02:11:21;4.00;1.00
29547;DHT22;40782;47.264;11.330;2022-11-20T02:13:50;3.90;1.00
29547;DHT22;40782;47.264;11.330;2022-11-20T02:16:20;4.00;1.00
29547;DHT22;40782;47.264;11.330;2022-11-20T02:18:48;3.90;1.00
29547;DHT22;40782;47.264;11.330;2022-11-20T02:21:27;3.90;1.00
29547;DHT22;40782;47.264;11.330;2022-11-20T02:24:04;3.90;1.00
29547;DHT22;40782;47.264;11.330;2022-11-20T02:26:36;3.90;1.00
29547;DHT22;40782;47.264;11.330;2022-11-20T02:29:05;4.00;1.00
29547;DHT22;40782;47.264;11.330;2022-11-20T02:31:41;4.00;1.00
29547;DHT22;40782;47.264;11.330;2022-11-20T02:34:09;4.00;1.00
29547;DHT22;40782;47.264;11.330;2022-11-20T02:36:39;3.90;1.00
29547;DHT22;40782;47.264;11.330;2022-11-20T02:39:11;3.90;1.00
29547;DHT22;40782;47.264;11.330;2022-11-20T02:41:42;3.90;1.00
29547;DHT22;40782;47.264;11.330;2022-11-20T02:44:09;3.90;1.00
29547;DHT22;40782;47.264;11.330;2022-11-20T02:46:36;3.90;1.00
29547;DHT22;40782;47.264;11.330;2022-11-20T02:49:04;3.90;1.00
29547;DHT22;40782;47.264;11.330;2022-11-20T02:51:32;3.90;1.00
29547;DHT22;40782;47.264;11.330;2022-11-20T02:53:59;4.00;1.00
29547;DHT22;40782;47.264;11.330;2022-11-20T02:56:28;4.00;1.00
29547;DHT22;40782;47.264;11.330;2022-11-20T02:58:55;4.00;1.00
29547;DHT22;40782;47.264;11.330;2022-11-20T03:01:22;4.00;1.00
29547;DHT22;40782;47.264;11.330;2022-11-20T03:03:50;4.00;1.00
29547;DHT22;40782;47.264;11.330;2022-11-20T03:06:19;4.10;1.00
29547;DHT22;40782;47.264;11.330;2022-11-20T03:08:46;4.10;1.00
29547;DHT22;40782;47.264;11.330;2022-11-20T03:11:13;4.10;1.00
29547;DHT22;40782;47.264;11.330;2022-11-20T03:13:42;4.10;1.00
29547;DHT22;40782;47.264;11.330;2022-11-20T03:16:11;4.10;1.00
29547;DHT22;40782;47.264;11.330;2022-11-20T03:18:39;4.10;1.00
29547;DHT22;40782;47.264;11.330;2022-11-20T03:21:07;4.20;1.00
29547;DHT22;40782;47.264;11.330;2022-11-20T03:23:35;4.20;1.00
29547;DHT22;40782;47.264;11.330;2022-11-20T03:26:11;4.10;1.00
29547;DHT22;40782;47.264;11.330;2022-11-20T03:28:40;4.10;1.00
29547;DHT22;40782;47.264;11.330;2022-11-20T03:31:11;4.10;1.00
29547;DHT22;40782;47.264;11.330;2022-11-20T03:33:38;4.20;1.00
29547;DHT22;40782;47.264;11.330;2022-11-20T03:36:08;4.10;1.00
29547;DHT22;40782;47.264;11.330;2022-11-20T03:38:36;4.10;1.00
29547;DHT22;40782;47.264;11.330;2022-11-20T03:41:07;4.10;1.00
29547;DHT22;40782;47.264;11.330;2022-11-20T03:43:34;4.10;1.00
29547;DHT22;40782;47.264;11.330;2022-11-20T03:46:02;4.10;1.00
29547;DHT22;40782;47.264;11.330;2022-11-20T03:48:30;4.10;1.00
29547;DHT22;40782;47.264;11.330;2022-11-20T03:51:09;4.00;1.00
29547;DHT22;40782;47.264;11.330;2022-11-20T03:53:36;4.00;1.00
29547;DHT22;40782;47.264;11.330;2022-11-20T03:56:04;4.00;1.00
29547;DHT22;40782;47.264;11.330;2022-11-20T03:58:33;4.00;1.00
29547;DHT22;40782;47.264;11.330;2022-11-20T04:01:05;4.00;1.00
29547;DHT22;40782;47.264;11.330;2022-11-20T04:03:34;3.90;1.00
29547;DHT22;40782;47.264;11.330;2022-11-20T04:06:03;3.90;1.00
29547;DHT22;40782;47.264;11.330;2022-11-20T04:08:30;3.90;1.00
29547;DHT22;40782;47.264;11.330;2022-11-20T04:11:08;3.90;1.00
29547;DHT22;40782;47.264;11.330;2022-11-20T04:13:35;3.90;1.00
29547;DHT22;40782;47.264;11.330;2022-11-20T04:16:03;3.80;1.00
29547;DHT22;40782;47.264;11.330;2022-11-20T04:18:30;3.80;1.00
29547;DHT22;40782;47.264;11.330;2022-11-20T04:20:59;3.80;1.00
29547;DHT22;40782;47.264;11.330;2022-11-20T04:23:26;3.80;1.00
29547;DHT22;40782;47.264;11.330;2022-11-20T04:25:53;3.80;1.00
29547;DHT22;40782;47.264;11.330;2022-11-20T04:28:21;3.80;1.00
29547;DHT22;40782;47.264;11.330;2022-11-20T04:30:48;3.90;1.00
29547;DHT22;40782;47.264;11.330;2022-11-20T04:33:15;3.80;1.00
29547;DHT22;40782;47.264;11.330;2022-11-20T04:35:42;3.80;1.00
29547;DHT22;40782;47.264;11.330;2022-11-20T04:38:12;3.80;1.00
29547;DHT22;40782;47.264;11.330;2022-11-20T04:40:39;3.80;1.00
29547;DHT22;40782;47.264;11.330;2022-11-20T04:43:06;3.80;1.00
29547;DHT22;40782;47.264;11.330;2022-11-20T04:45:34;3.80;1.00
29547;DHT22;40782;47.264;11.330;2022-11-20T04:48:01;3.80;1.00
29547;DHT22;40782;47.264;11.330;2022-11-20T04:50:28;3.80;1.00
29547;DHT22;40782;47.264;11.330;2022-11-20T04:52:55;3.80;1.00
29547;DHT22;40782;47.264;11.330;2022-11-20T04:55:23;3.90;1.00
29547;DHT22;40782;47.264;11.330;2022-11-20T04:57:51;3.90;1.00
29547;DHT22;40782;47.264;11.330;2022-11-20T05:00:18;3.90;1.00
29547;DHT22;40782;47.264;11.330;2022-11-20T05:02:45;3.90;1.00
29547;DHT22;40782;47.264;11.330;2022-11-20T05:05:12;3.90;1.00
29547;DHT22;40782;47.264;11.330;2022-11-20T05:07:40;3.90;1.00
29547;DHT22;40782;47.264;11.330;2022-11-20T05:10:07;3.90;1.00
29547;DHT22;40782;47.264;11.330;2022-11-20T05:12:36;4.00;1.00
29547;DHT22;40782;47.264;11.330;2022-11-20T05:15:04;4.00;1.00
29547;DHT22;40782;47.264;11.330;2022-11-20T05:17:31;4.00;1.00
29547;DHT22;40782;47.264;11.330;2022-11-20T05:19:58;4.00;1.00
29547;DHT22;40782;47.264;11.330;2022-11-20T05:22:26;4.00;1.00
29547;DHT22;40782;47.264;11.330;2022-11-20T05:24:53;4.00;1.00
29547;DHT22;40782;47.264;11.330;2022-11-20T05:27:20;4.00;1.00
29547;DHT22;40782;47.264;11.330;2022-11-20T05:29:49;4.00;1.00
29547;DHT22;40782;47.264;11.330;2022-11-20T05:32:16;4.00;1.00
29547;DHT22;40782;47.264;11.330;2022-11-20T05:34:43;3.90;1.00
29547;DHT22;40782;47.264;11.330;2022-11-20T05:37:10;3.90;1.00
29547;DHT22;40782;47.264;11.330;2022-11-20T05:39:37;3.90;1.00
29547;DHT22;40782;47.264;11.330;2022-11-20T05:42:04;3.90;1.00
29547;DHT22;40782;47.264;11.330;2022-11-20T05:44:53;3.90;1.00
29547;DHT22;40782;47.264;11.330;2022-11-20T05:47:20;4.00;1.00
29547;DHT22;40782;47.264;11.330;2022-11-20T05:49:47;4.00;1.00
29547;DHT22;40782;47.264;11.330;2022-11-20T05:52:14;4.00;1.00
29547;DHT22;40782;47.264;11.330;2022-11-20T05:54:41;4.00;1.00
29547;DHT22;40782;47.264;11.330;2022-11-20T05:57:08;4.10;1.00
29547;DHT22;40782;47.264;11.330;2022-11-20T05:59:35;4.10;1.00
29547;DHT22;40782;47.264;11.330;2022-11-20T06:02:04;4.00;1.00
29547;DHT22;40782;47.264;11.330;2022-11-20T06:04:31;4.10;1.00
29547;DHT22;40782;47.264;11.330;2022-11-20T06:06:58;4.00;1.00
29547;DHT22;40782;47.264;11.330;2022-11-20T06:09:25;4.00;1.00
29547;DHT22;40782;47.264;11.330;2022-11-20T06:11:52;4.00;1.00
29547;DHT22;40782;47.264;11.330;2022-11-20T06:14:20;4.00;1.00
29547;DHT22;40782;47.264;11.330;2022-11-20T06:16:47;4.00;1.00
29547;DHT22;40782;47.264;11.330;2022-11-20T06:19:15;4.00;1.00
29547;DHT22;40782;47.264;11.330;2022-11-20T06:21:43;4.00;1.00
29547;DHT22;40782;47.264;11.330;2022-11-20T06:24:10;4.00;1.00
29547;DHT22;40782;47.264;11.330;2022-11-20T06:26:37;4.00;1.00
29547;DHT22;40782;47.264;11.330;2022-11-20T06:29:04;4.00;1.00
29547;DHT22;40782;47.264;11.330;2022-11-20T06:31:32;4.00;1.00
29547;DHT22;40782;47.264;11.330;2022-11-20T06:34:00;4.00;1.00
29547;DHT22;40782;47.264;11.330;2022-11-20T06:36:29;4.00;1.00
29547;DHT22;40782;47.264;11.330;2022-11-20T06:38:56;4.00;1.00
29547;DHT22;40782;47.264;11.330;2022-11-20T06:41:23;3.90;1.00
29547;DHT22;40782;47.264;11.330;2022-11-20T06:43:51;3.90;1.00
29547;DHT22;40782;47.264;11.330;2022-11-20T06:46:19;3.90;1.00
29547;DHT22;40782;47.264;11.330;2022-11-20T06:48:46;3.90;1.00
29547;DHT22;40782;47.264;11.330;2022-11-20T06:51:14;3.90;1.00
29547;DHT22;40782;47.264;11.330;2022-11-20T06:53:43;3.90;1.00
29547;DHT22;40782;47.264;11.330;2022-11-20T06:56:10;3.90;1.00
29547;DHT22;40782;47.264;11.330;2022-11-20T06:58:37;3.90;1.00
29547;DHT22;40782;47.264;11.330;2022-11-20T07:01:06;3.90;1.00
29547;DHT22;40782;47.264;11.330;2022-11-20T07:03:34;3.90;1.00
29547;DHT22;40782;47.264;11.330;2022-11-20T07:06:02;3.90;1.00
29547;DHT22;40782;47.264;11.330;2022-11-20T07:08:30;3.80;1.00
29547;DHT22;40782;47.264;11.330;2022-11-20T07:10:59;3.80;1.00
29547;DHT22;40782;47.264;11.330;2022-11-20T07:13:27;3.80;1.00
29547;DHT22;40782;47.264;11.330;2022-11-20T07:15:54;3.80;1.00
29547;DHT22;40782;47.264;11.330;2022-11-20T07:18:22;3.80;1.00
29547;DHT22;40782;47.264;11.330;2022-11-20T07:20:49;3.70;1.00
29547;DHT22;40782;47.264;11.330;2022-11-20T07:23:16;3.70;1.00
29547;DHT22;40782;47.264;11.330;2022-11-20T07:25:43;3.70;1.00
29547;DHT22;40782;47.264;11.330;2022-11-20T07:28:12;3.70;1.00
29547;DHT22;40782;47.264;11.330;2022-11-20T07:30:39;3.80;99.90
29547;DHT22;40782;47.264;11.330;2022-11-20T07:33:06;3.90;99.90
29547;DHT22;40782;47.264;11.330;2022-11-20T07:35:33;3.90;99.90
29547;DHT22;40782;47.264;11.330;2022-11-20T07:38:01;3.90;99.90
29547;DHT22;40782;47.264;11.330;2022-11-20T07:40:28;4.00;99.90
29547;DHT22;40782;47.264;11.330;2022-11-20T07:42:55;4.00;99.90
29547;DHT22;40782;47.264;11.330;2022-11-20T07:45:24;4.00;99.90
29547;DHT22;40782;47.264;11.330;2022-11-20T07:47:51;4.10;99.90
29547;DHT22;40782;47.264;11.330;2022-11-20T07:50:19;4.10;99.90
29547;DHT22;40782;47.264;11.330;2022-11-20T07:52:46;4.20;1.00
29547;DHT22;40782;47.264;11.330;2022-11-20T07:55:14;4.20;1.00
29547;DHT22;40782;47.264;11.330;2022-11-20T07:57:42;4.20;1.00
29547;DHT22;40782;47.264;11.330;2022-11-20T08:00:11;4.30;1.00
29547;DHT22;40782;47.264;11.330;2022-11-20T08:02:40;4.40;1.00
29547;DHT22;40782;47.264;11.330;2022-11-20T08:05:08;4.50;1.00
29547;DHT22;40782;47.264;11.330;2022-11-20T08:07:36;4.50;99.90
29547;DHT22;40782;47.264;11.330;2022-11-20T08:10:05;4.60;99.90
29547;DHT22;40782;47.264;11.330;2022-11-20T08:12:32;4.70;99.90
29547;DHT22;40782;47.264;11.330;2022-11-20T08:15:17;4.70;99.90
29547;DHT22;40782;47.264;11.330;2022-11-20T08:17:45;4.80;99.90
29547;DHT22;40782;47.264;11.330;2022-11-20T08:20:13;4.80;99.90
29547;DHT22;40782;47.264;11.330;2022-11-20T08:22:40;4.90;99.90
29547;DHT22;40782;47.264;11.330;2022-11-20T08:25:07;5.00;99.90
29547;DHT22;40782;47.264;11.330;2022-11-20T08:27:35;5.00;99.90
29547;DHT22;40782;47.264;11.330;2022-11-20T08:30:02;5.10;99.90
29547;DHT22;40782;47.264;11.330;2022-11-20T08:32:30;5.10;99.90
29547;DHT22;40782;47.264;11.330;2022-11-20T08:34:58;5.20;99.90
29547;DHT22;40782;47.264;11.330;2022-11-20T08:37:25;5.30;99.90
29547;DHT22;40782;47.264;11.330;2022-11-20T08:39:53;5.40;67.50
29547;DHT22;40782;47.264;11.330;2022-11-20T08:42:22;5.40;28.00
29547;DHT22;40782;47.264;11.330;2022-11-20T08:44:49;5.50;23.10
29547;DHT22;40782;47.264;11.330;2022-11-20T08:47:16;5.60;22.70
29547;DHT22;40782;47.264;11.330;2022-11-20T08:49:44;5.70;1.00
29547;DHT22;40782;47.264;11.330;2022-11-20T08:52:12;5.80;1.00
29547;DHT22;40782;47.264;11.330;2022-11-20T08:54:39;5.90;1.00
29547;DHT22;40782;47.264;11.330;2022-11-20T08:57:06;6.00;1.00
29547;DHT22;40782;47.264;11.330;2022-11-20T08:59:33;6.00;1.00
29547;DHT22;40782;47.264;11.330;2022-11-20T09:02:01;6.00;1.00
29547;DHT22;40782;47.264;11.330;2022-11-20T09:04:28;6.00;1.00
29547;DHT22;40782;47.264;11.330;2022-11-20T09:06:55;6.10;1.00
29547;DHT22;40782;47.264;11.330;2022-11-20T09:09:24;6.10;1.00
29547;DHT22;40782;47.264;11.330;2022-11-20T09:11:51;6.30;1.00
29547;DHT22;40782;47.264;11.330;2022-11-20T09:14:24;6.50;1.00
29547;DHT22;40782;47.264;11.330;2022-11-20T09:16:54;6.80;1.00
29547;DHT22;40782;47.264;11.330;2022-11-20T09:19:21;7.00;1.00
29547;DHT22;40782;47.264;11.330;2022-11-20T09:21:50;7.40;1.00
29547;DHT22;40782;47.264;11.330;2022-11-20T09:24:17;7.60;1.00
29547;DHT22;40782;47.264;11.330;2022-11-20T09:26:47;7.80;1.00
29547;DHT22;40782;47.264;11.330;2022-11-20T09:29:14;8.00;1.00
29547;DHT22;40782;47.264;11.330;2022-11-20T09:31:41;8.20;1.00
29547;DHT22;40782;47.264;11.330;2022-11-20T09:34:09;8.50;1.00
29547;DHT22;40782;47.264;11.330;2022-11-20T09:36:36;8.60;1.00
29547;DHT22;40782;47.264;11.330;2022-11-20T09:39:03;8.70;1.00
29547;DHT22;40782;47.264;11.330;2022-11-20T09:44:38;9.20;1.00
29547;DHT22;40782;47.264;11.330;2022-11-20T09:47:10;9.60;1.00
29547;DHT22;40782;47.264;11.330;2022-11-20T09:49:55;10.00;1.00
29547;DHT22;40782;47.264;11.330;2022-11-20T09:52:32;10.20;99.90
29547;DHT22;40782;47.264;11.330;2022-11-20T09:55:03;10.50;99.90
29547;DHT22;40782;47.264;11.330;2022-11-20T09:57:37;10.60;99.90
29547;DHT22;40782;47.264;11.330;2022-11-20T10:00:11;11.00;99.90
29547;DHT22;40782;47.264;11.330;2022-11-20T10:02:44;11.30;99.90
29547;DHT22;40782;47.264;11.330;2022-11-20T10:05:18;11.50;99.90
29547;DHT22;40782;47.264;11.330;2022-11-20T10:07:51;11.70;99.90
29547;DHT22;40782;47.264;11.330;2022-11-20T10:10:29;11.90;99.90
29547;DHT22;40782;47.264;11.330;2022-11-20T10:13:11;12.10;99.90
29547;DHT22;40782;47.264;11.330;2022-11-20T10:15:51;12.30;99.90
29547;DHT22;40782;47.264;11.330;2022-11-20T10:18:28;12.60;99.90
29547;DHT22;40782;47.264;11.330;2022-11-20T10:21:02;12.70;99.90
29547;DHT22;40782;47.264;11.330;2022-11-20T10:26:42;12.80;99.90
29547;DHT22;40782;47.264;11.330;2022-11-20T10:29:14;13.10;99.90
29547;DHT22;40782;47.264;11.330;2022-11-20T10:31:45;13.30;99.90
29547;DHT22;40782;47.264;11.330;2022-11-20T10:34:19;13.50;99.90
29547;DHT22;40782;47.264;11.330;2022-11-20T10:36:50;13.60;99.90
29547;DHT22;40782;47.264;11.330;2022-11-20T10:39:25;14.00;99.90
29547;DHT22;40782;47.264;11.330;2022-11-20T10:41:56;14.60;99.90
29547;DHT22;40782;47.264;11.330;2022-11-20T10:44:27;15.30;99.90
29547;DHT22;40782;47.264;11.330;2022-11-20T10:47:15;15.70;99.90
29547;DHT22;40782;47.264;11.330;2022-11-20T10:49:43;16.10;99.90
29547;DHT22;40782;47.264;11.330;2022-11-20T10:52:16;16.40;99.90
29547;DHT22;40782;47.264;11.330;2022-11-20T10:54:49;16.70;99.90
29547;DHT22;40782;47.264;11.330;2022-11-20T10:57:29;17.10;99.90
29547;DHT22;40782;47.264;11.330;2022-11-20T11:00:04;16.70;99.90
29547;DHT22;40782;47.264;11.330;2022-11-20T11:02:37;16.80;99.90
29547;DHT22;40782;47.264;11.330;2022-11-20T11:05:17;17.00;99.90
29547;DHT22;40782;47.264;11.330;2022-11-20T11:07:45;17.30;99.90
29547;DHT22;40782;47.264;11.330;2022-11-20T11:10:16;17.50;99.90
29547;DHT22;40782;47.264;11.330;2022-11-20T11:12:46;17.50;99.90
29547;DHT22;40782;47.264;11.330;2022-11-20T11:15:24;17.20;99.90
29547;DHT22;40782;47.264;11.330;2022-11-20T11:17:53;17.00;99.90
29547;DHT22;40782;47.264;11.330;2022-11-20T11:20:23;16.70;99.90
29547;DHT22;40782;47.264;11.330;2022-11-20T11:22:52;16.80;99.90
29547;DHT22;40782;47.264;11.330;2022-11-20T11:25:31;16.80;99.90
29547;DHT22;40782;47.264;11.330;2022-11-20T11:28:02;17.00;99.90
29547;DHT22;40782;47.264;11.330;2022-11-20T11:30:40;17.10;99.90
29547;DHT22;40782;47.264;11.330;2022-11-20T11:33:12;17.20;99.90
29547;DHT22;40782;47.264;11.330;2022-11-20T11:35:47;17.20;99.90
29547;DHT22;40782;47.264;11.330;2022-11-20T11:38:17;17.40;99.90
29547;DHT22;40782;47.264;11.330;2022-11-20T11:40:46;17.90;99.90
29547;DHT22;40782;47.264;11.330;2022-11-20T11:43:22;17.60;99.90
29547;DHT22;40782;47.264;11.330;2022-11-20T11:46:25;17.70;99.90
29547;DHT22;40782;47.264;11.330;2022-11-20T11:48:59;17.60;99.90
29547;DHT22;40782;47.264;11.330;2022-11-20T11:51:32;18.10;99.90
29547;DHT22;40782;47.264;11.330;2022-11-20T11:54:03;17.80;99.90
29547;DHT22;40782;47.264;11.330;2022-11-20T11:56:35;18.40;99.90
29547;DHT22;40782;47.264;11.330;2022-11-20T11:59:06;18.60;99.90
29547;DHT22;40782;47.264;11.330;2022-11-20T12:01:42;19.20;99.90
29547;DHT22;40782;47.264;11.330;2022-11-20T12:04:16;19.60;99.90
29547;DHT22;40782;47.264;11.330;2022-11-20T12:06:51;20.00;99.90
29547;DHT22;40782;47.264;11.330;2022-11-20T12:09:26;20.20;99.90
29547;DHT22;40782;47.264;11.330;2022-11-20T12:12:05;20.10;99.90
29547;DHT22;40782;47.264;11.330;2022-11-20T12:14:37;20.20;99.90
29547;DHT22;40782;47.264;11.330;2022-11-20T12:17:08;20.30;99.90
29547;DHT22;40782;47.264;11.330;2022-11-20T12:19:36;20.00;99.90
29547;DHT22;40782;47.264;11.330;2022-11-20T12:22:10;19.70;99.90
29547;DHT22;40782;47.264;11.330;2022-11-20T12:24:51;19.60;99.90
29547;DHT22;40782;47.264;11.330;2022-11-20T12:27:39;19.80;99.90
29547;DHT22;40782;47.264;11.330;2022-11-20T12:30:12;19.90;99.90
29547;DHT22;40782;47.264;11.330;2022-11-20T12:35:48;18.50;99.90
29547;DHT22;40782;47.264;11.330;2022-11-20T12:38:33;17.40;99.90
29547;DHT22;40782;47.264;11.330;2022-11-20T12:41:07;16.70;99.90
29547;DHT22;40782;47.264;11.330;2022-11-20T12:43:45;16.40;99.90
29547;DHT22;40782;47.264;11.330;2022-11-20T12:46:32;16.60;99.90
29547;DHT22;40782;47.264;11.330;2022-11-20T12:49:23;16.50;99.90
29547;DHT22;40782;47.264;11.330;2022-11-20T12:52:08;16.80;99.90
29547;DHT22;40782;47.264;11.330;2022-11-20T12:55:01;16.80;99.90
29547;DHT22;40782;47.264;11.330;2022-11-20T12:57:39;16.80;99.90
29547;DHT22;40782;47.264;11.330;2022-11-20T13:00:14;16.60;99.90
29547;DHT22;40782;47.264;11.330;2022-11-20T13:05:48;15.50;99.90
29547;DHT22;40782;47.264;11.330;2022-11-20T13:08:23;15.00;99.90
29547;DHT22;40782;47.264;11.330;2022-11-20T13:10:58;14.70;99.90
29547;DHT22;40782;47.264;11.330;2022-11-20T13:13:33;14.60;99.90
29547;DHT22;40782;47.264;11.330;2022-11-20T13:16:06;15.30;99.90
29547;DHT22;40782;47.264;11.330;2022-11-20T13:18:39;16.10;99.90
29547;DHT22;40782;47.264;11.330;2022-11-20T13:21:17;16.40;99.90
29547;DHT22;40782;47.264;11.330;2022-11-20T13:23:46;16.30;99.90
29547;DHT22;40782;47.264;11.330;2022-11-20T13:26:17;16.30;99.90
29547;DHT22;40782;47.264;11.330;2022-11-20T13:28:46;15.90;99.90
29547;DHT22;40782;47.264;11.330;2022-11-20T13:31:31;15.80;99.90
29547;DHT22;40782;47.264;11.330;2022-11-20T13:34:01;15.80;99.90
29547;DHT22;40782;47.264;11.330;2022-11-20T13:36:29;15.60;99.90
29547;DHT22;40782;47.264;11.330;2022-11-20T13:38:59;15.80;99.90
29547;DHT22;40782;47.264;11.330;2022-11-20T13:41:28;16.10;99.90
29547;DHT22;40782;47.264;11.330;2022-11-20T13:44:06;16.10;99.90
29547;DHT22;40782;47.264;11.330;2022-11-20T13:46:40;15.70;99.90
29547;DHT22;40782;47.264;11.330;2022-11-20T13:49:15;15.40;99.90
29547;DHT22;40782;47.264;11.330;2022-11-20T13:51:44;15.40;99.90
29547;DHT22;40782;47.264;11.330;2022-11-20T13:54:44;15.80;99.90
29547;DHT22;40782;47.264;11.330;2022-11-20T13:57:41;15.70;99.90
29547;DHT22;40782;47.264;11.330;2022-11-20T14:00:12;16.00;99.90
29547;DHT22;40782;47.264;11.330;2022-11-20T14:02:40;16.30;99.90
29547;DHT22;40782;47.264;11.330;2022-11-20T14:05:17;17.10;99.90
29547;DHT22;40782;47.264;11.330;2022-11-20T14:07:47;17.70;99.90
29547;DHT22;40782;47.264;11.330;2022-11-20T14:10:24;18.50;99.90
29547;DHT22;40782;47.264;11.330;2022-11-20T14:12:51;18.80;99.90
29547;DHT22;40782;47.264;11.330;2022-11-20T14:15:26;19.00;99.90
29547;DHT22;40782;47.264;11.330;2022-11-20T14:17:54;19.20;99.90
29547;DHT22;40782;47.264;11.330;2022-11-20T14:20:24;19.00;99.50
29547;DHT22;40782;47.264;11.330;2022-11-20T14:22:54;18.60;96.70
29547;DHT22;40782;47.264;11.330;2022-11-20T14:25:24;18.70;98.30
29547;DHT22;40782;47.264;11.330;2022-11-20T14:27:54;18.90;98.90
29547;DHT22;40782;47.264;11.330;2022-11-20T14:30:23;18.90;99.90
29547;DHT22;40782;47.264;11.330;2022-11-20T14:32:53;18.90;98.70
29547;DHT22;40782;47.264;11.330;2022-11-20T14:35:24;18.80;97.70
29547;DHT22;40782;47.264;11.330;2022-11-20T14:37:52;18.60;98.30
29547;DHT22;40782;47.264;11.330;2022-11-20T14:40:27;18.20;98.30
29547;DHT22;40782;47.264;11.330;2022-11-20T14:42:54;17.30;99.20
29547;DHT22;40782;47.264;11.330;2022-11-20T14:45:22;16.40;99.90
29547;DHT22;40782;47.264;11.330;2022-11-20T14:47:50;15.70;99.90
29547;DHT22;40782;47.264;11.330;2022-11-20T14:50:20;15.00;99.90
29547;DHT22;40782;47.264;11.330;2022-11-20T14:52:53;14.60;99.90
29547;DHT22;40782;47.264;11.330;2022-11-20T14:55:28;14.20;99.90
29547;DHT22;40782;47.264;11.330;2022-11-20T14:57:58;14.00;99.90
29547;DHT22;40782;47.264;11.330;2022-11-20T15:00:25;13.70;99.90
29547;DHT22;40782;47.264;11.330;2022-11-20T15:02:53;13.40;99.90
29547;DHT22;40782;47.264;11.330;2022-11-20T15:05:25;13.20;99.90
29547;DHT22;40782;47.264;11.330;2022-11-20T15:08:05;12.90;99.90
29547;DHT22;40782;47.264;11.330;2022-11-20T15:10:34;12.60;99.90
29547;DHT22;40782;47.264;11.330;2022-11-20T15:13:05;12.40;99.90
29547;DHT22;40782;47.264;11.330;2022-11-20T15:15:38;12.10;99.90
29547;DHT22;40782;47.264;11.330;2022-11-20T15:18:11;11.80;99.90
29547;DHT22;40782;47.264;11.330;2022-11-20T15:20:41;11.50;99.90
29547;DHT22;40782;47.264;11.330;2022-11-20T15:23:11;11.20;99.90
29547;DHT22;40782;47.264;11.330;2022-11-20T15:25:40;11.00;99.90
29547;DHT22;40782;47.264;11.330;2022-11-20T15:28:16;10.70;99.90
29547;DHT22;40782;47.264;11.330;2022-11-20T15:30:44;10.40;99.90
29547;DHT22;40782;47.264;11.330;2022-11-20T15:33:12;10.30;99.90
29547;DHT22;40782;47.264;11.330;2022-11-20T15:35:39;10.20;99.90
29547;DHT22;40782;47.264;11.330;2022-11-20T15:38:07;10.10;99.90
29547;DHT22;40782;47.264;11.330;2022-11-20T15:40:34;9.90;99.90
29547;DHT22;40782;47.264;11.330;2022-11-20T15:43:02;9.80;99.90
29547;DHT22;40782;47.264;11.330;2022-11-20T15:45:34;9.60;99.90
29547;DHT22;40782;47.264;11.330;2022-11-20T15:48:03;9.40;99.90
29547;DHT22;40782;47.264;11.330;2022-11-20T15:50:36;9.30;99.90
29547;DHT22;40782;47.264;11.330;2022-11-20T15:53:04;9.10;99.90
29547;DHT22;40782;47.264;11.330;2022-11-20T15:55:32;8.90;99.90
29547;DHT22;40782;47.264;11.330;2022-11-20T15:57:59;8.70;99.90
29547;DHT22;40782;47.264;11.330;2022-11-20T16:00:27;8.50;99.90
29547;DHT22;40782;47.264;11.330;2022-11-20T16:02:55;8.40;99.90
29547;DHT22;40782;47.264;11.330;2022-11-20T16:05:22;8.30;99.90
29547;DHT22;40782;47.264;11.330;2022-11-20T16:07:50;8.10;99.90